Aeroporto :
LOGIN :

Iscrizione | Disclaimer

   EN    FR    IT 

 










Sommario :    VFR   VFR Marginale   IFR   IFR Intensivo   IFR Molto Intensivo
Visibilità : 
Base nubi : 
>= 8 km
>= 3000ft
5 / 8 km
1000 / 3000 ft
1500m / 5 km
500 / 1000 ft
800 / 1500m
200 / 500 ft
< 800m
< 200 ft
Simboli :   Temporali  Nebbia  Neve Forte  Precipitazioni Forti  Vento > 20 kt
SIGMETs :   Varie  Temporali  Ghiacco  Turbolenza  Onda orograficha  Ceneri Vulcaniche






- Altitudine del aeroporto : 13 ft
- Codice IATA : LYX


EGMD - Lydd

ULTIMO METAR :
  • 210120Z AUTO 13008KT 9999 OVC009/// 05/03 Q1008

METARs OBSOLETI :
  • 210050Z AUTO 13010KT 9999 OVC009/// 05/03 Q1008
  • 210020Z AUTO 13010KT 9999 OVC009/// 05/03 Q1008
  • 202350Z AUTO 13011KT 9999 OVC009/// 05/03 Q1009
  • 202320Z AUTO 15011KT 9999 BKN011/// OVC015/// 05/03 Q1009
  • 202250Z AUTO 15011KT 9999 BKN015/// OVC019/// 05/03 Q1009

TAF TAF EGMD
Valido dal 21 a 00 ore il 21 a 09 ore UTC


202258Z 2100/2109 12012KT 9999 BKN016
BECMG 2100/2103 BKN012
PROB30
TEMPO 2100/2103 8000 BKN007
TEMPO 2103/2109 8000 BKN007
ATIS : +44 1797 322 422



MetMap, La meteo Aeronautica in un colpo d'occhio ! - Copyright ORBIFLY Dicembre 2007 - Disclaimer

ORBIFLY MET'MAP TEAM :

Programmazione e sviluppo : Alexandra Zaïnal
Concezione e sviluppo : Baudouin d'Aumeries
Co-Programmazione e sviluppo : Marc-Olivier Méhu
Supporto tecnico e logistico : Manuel Goepfert
Aiuto per la traduzione : Arnaldo La Scala

Contatto : metmap@orbifly.com




FONTI E CREDITI :

   NOAA